createdAt,value
2023-08-07T00:00:41.366Z,8.74
2023-08-07T00:06:08.620Z,5.08
2023-08-07T00:11:14.221Z,7.68
2023-08-07T00:16:18.508Z,7.06
2023-08-07T00:21:25.813Z,5.48
2023-08-07T00:26:29.272Z,4.84
2023-08-07T00:31:35.182Z,5.62
2023-08-07T00:36:42.597Z,5.83
2023-08-07T00:41:46.238Z,6.96
2023-08-07T00:46:49.806Z,8.68
2023-08-07T00:51:55.131Z,8.83
2023-08-07T00:57:04.771Z,6.47
2023-08-07T01:02:11.812Z,6.26
2023-08-07T01:07:19.069Z,7.12
2023-08-07T01:12:26.757Z,8.44
2023-08-07T01:17:31.742Z,7.09
2023-08-07T01:22:41.326Z,5.73
2023-08-07T01:27:52.476Z,4.13
2023-08-07T01:33:01.484Z,2.17
2023-08-07T01:38:07.525Z,4.84
2023-08-07T01:43:13.392Z,6.72
2023-08-07T01:48:17.025Z,6.71
2023-08-07T01:53:21.854Z,9.45
2023-08-07T01:58:25.341Z,8.06
2023-08-07T02:03:31.282Z,7.39
2023-08-07T02:08:36.121Z,4.59
2023-08-07T02:13:43.679Z,3.14
2023-08-07T02:18:49.538Z,3.27
2023-08-07T02:23:56.663Z,2.34
2023-08-07T02:29:00.083Z,3.20
2023-08-07T02:34:03.518Z,2.85
2023-08-07T02:39:11.612Z,2.43
2023-08-07T02:44:15.090Z,2.86
2023-08-07T02:49:21.089Z,2.71
2023-08-07T02:54:26.196Z,2.62
2023-08-07T02:59:29.630Z,4.17
2023-08-07T03:04:33.173Z,2.54
2023-08-07T03:09:38.142Z,2.90
2023-08-07T03:14:41.672Z,3.48
2023-08-07T03:19:47.700Z,2.31
2023-08-07T03:24:57.604Z,2.59
2023-08-07T03:30:06.186Z,2.97
2023-08-07T03:35:09.890Z,6.53
2023-08-07T03:40:17.664Z,3.12
2023-08-07T03:45:24.484Z,2.78
2023-08-07T03:50:27.947Z,5.15
2023-08-07T03:55:32.831Z,3.74
2023-08-07T04:00:38.716Z,4.00
2023-08-07T04:05:44.558Z,4.40
2023-08-07T04:10:59.907Z,4.08
2023-08-07T04:16:08.618Z,3.11
2023-08-07T04:21:12.601Z,4.23
2023-08-07T04:26:17.453Z,4.76
2023-08-07T04:31:20.971Z,4.56
2023-08-07T04:36:24.641Z,4.23
2023-08-07T04:41:29.366Z,7.95
2023-08-07T04:46:34.365Z,6.73
2023-08-07T04:51:38.103Z,4.00
2023-08-07T04:56:45.617Z,4.10
2023-08-07T05:01:49.291Z,3.01
2023-08-07T05:06:54.868Z,3.33
2023-08-07T05:11:59.665Z,5.60
2023-08-07T05:17:05.698Z,6.83
2023-08-07T05:22:11.624Z,6.16
2023-08-07T05:27:18.775Z,11.68
2023-08-07T05:32:27.180Z,11.96
2023-08-07T05:37:32.705Z,10.87
2023-08-07T05:42:37.532Z,12.27
2023-08-07T05:47:41.015Z,10.09
2023-08-07T05:52:44.587Z,10.23
2023-08-07T05:57:52.241Z,9.67
2023-08-07T06:02:58.310Z,10.51
2023-08-07T06:08:04.507Z,13.01
2023-08-07T06:13:19.969Z,10.39
2023-08-07T06:18:31.041Z,9.40
2023-08-07T06:23:34.721Z,11.92
2023-08-07T06:28:42.015Z,23.10
2023-08-07T06:33:45.555Z,21.48
2023-08-07T06:38:49.461Z,23.65
2023-08-07T06:43:54.312Z,11.22
2023-08-07T06:48:57.964Z,11.85
2023-08-07T06:54:01.515Z,15.65
2023-08-07T06:59:09.102Z,11.42
2023-08-07T07:04:12.661Z,10.32
2023-08-07T07:09:17.528Z,11.01
2023-08-07T07:14:22.675Z,11.31
2023-08-07T07:19:26.201Z,10.90
2023-08-07T07:24:32.190Z,9.94
2023-08-07T07:29:39.374Z,9.91
2023-08-07T07:34:45.294Z,16.49
2023-08-07T07:39:48.725Z,15.42
2023-08-07T07:44:53.659Z,15.61
2023-08-07T07:50:07.728Z,14.81
2023-08-07T07:55:14.874Z,13.16
2023-08-07T08:00:24.298Z,14.96
2023-08-07T08:05:32.062Z,6.62
2023-08-07T08:10:42.592Z,7.93
2023-08-07T08:15:47.905Z,11.63
2023-08-07T08:20:53.908Z,16.45
2023-08-07T08:26:03.501Z,12.85
2023-08-07T08:31:10.081Z,12.26
2023-08-07T08:36:13.660Z,11.77
2023-08-07T08:41:18.508Z,14.33
2023-08-07T08:46:27.067Z,11.89
2023-08-07T08:51:30.702Z,11.48
2023-08-07T08:56:35.149Z,11.29
2023-08-07T09:01:42.682Z,9.78
2023-08-07T09:06:46.372Z,14.12
2023-08-07T09:11:53.278Z,10.61
2023-08-07T09:17:01.617Z,9.64
2023-08-07T09:22:10.029Z,9.43
2023-08-07T09:27:13.862Z,9.62
2023-08-07T09:32:19.962Z,8.66
2023-08-07T09:37:23.429Z,9.38
2023-08-07T09:42:26.903Z,9.75
2023-08-07T09:47:34.073Z,15.90
2023-08-07T09:52:41.660Z,8.67
2023-08-07T09:57:45.886Z,9.23
2023-08-07T10:02:54.022Z,7.64
2023-08-07T10:08:00.108Z,15.58
2023-08-07T10:13:03.686Z,9.30
2023-08-07T10:18:10.864Z,8.53
2023-08-07T10:23:16.597Z,9.00
2023-08-07T10:28:22.770Z,9.83
2023-08-07T10:33:30.898Z,9.72
2023-08-07T10:38:34.589Z,11.32
2023-08-07T10:43:43.386Z,8.26
2023-08-07T10:48:58.571Z,8.61
2023-08-07T10:54:04.013Z,7.97
2023-08-07T10:59:12.905Z,6.43
2023-08-07T11:04:17.739Z,7.30
2023-08-07T11:09:23.478Z,15.88
2023-08-07T11:14:29.987Z,8.70
2023-08-07T11:19:35.038Z,9.59
2023-08-07T11:24:39.906Z,8.74
2023-08-07T11:29:47.783Z,16.22
2023-08-07T11:34:52.915Z,13.75
2023-08-07T11:40:01.765Z,13.61
2023-08-07T11:45:07.011Z,11.10
2023-08-07T11:50:12.306Z,14.97
2023-08-07T11:55:16.504Z,13.74
2023-08-07T12:00:21.568Z,11.17
2023-08-07T12:05:32.545Z,11.38
2023-08-07T12:10:37.198Z,14.35
2023-08-07T12:15:40.709Z,11.16
2023-08-07T12:20:48.016Z,12.48
2023-08-07T12:25:56.402Z,16.14
2023-08-07T12:31:00.032Z,10.82
2023-08-07T12:51:36.746Z,6.00
2023-08-07T12:56:42.581Z,12.64
2023-08-07T13:01:46.145Z,5.30
2023-08-07T13:06:51.791Z,5.62
2023-08-07T13:11:55.274Z,6.17
2023-08-07T13:16:59.574Z,9.87
2023-08-07T13:22:07.428Z,17.03
2023-08-07T13:27:11.233Z,7.05
2023-08-07T13:32:19.586Z,6.46
2023-08-07T13:37:26.743Z,4.37
2023-08-07T13:42:32.400Z,4.71
2023-08-07T13:47:37.018Z,5.97
2023-08-07T13:52:44.236Z,4.92
2023-08-07T13:57:47.734Z,6.12
2023-08-07T14:02:51.347Z,4.44
2023-08-07T14:07:58.690Z,4.69
2023-08-07T14:13:02.230Z,5.75
2023-08-07T14:18:05.663Z,8.87
2023-08-07T14:23:20.885Z,9.70
2023-08-07T14:28:25.130Z,6.98
2023-08-07T14:33:29.721Z,6.36
2023-08-07T14:38:34.541Z,5.56
2023-08-07T14:43:38.058Z,5.92
2023-08-07T14:48:41.555Z,4.62
2023-08-07T14:53:48.676Z,10.03
2023-08-07T14:58:57.072Z,3.45
2023-08-07T15:04:02.954Z,4.04
2023-08-07T15:09:07.938Z,9.81
2023-08-07T15:14:13.493Z,16.96
2023-08-07T15:19:16.922Z,22.93
2023-08-07T15:24:21.979Z,11.09
2023-08-07T15:29:25.534Z,9.57
2023-08-07T15:34:31.150Z,9.85
2023-08-07T15:39:35.976Z,9.99
2023-08-07T15:44:40.480Z,10.70
2023-08-07T15:49:45.689Z,12.84
2023-08-07T15:54:52.798Z,9.81
2023-08-07T15:59:58.667Z,9.39
2023-08-07T16:05:05.722Z,9.09
2023-08-07T16:10:12.716Z,22.54
2023-08-07T16:15:16.200Z,9.50
2023-08-07T16:20:20.234Z,9.40
2023-08-07T16:25:25.133Z,9.62
2023-08-07T16:30:30.954Z,8.58
2023-08-07T16:35:34.505Z,9.75
2023-08-07T16:40:39.847Z,10.25
2023-08-07T16:45:45.780Z,8.92
2023-08-07T16:51:07.477Z,11.84
2023-08-07T16:56:14.317Z,11.22
2023-08-07T17:01:20.805Z,8.03
2023-08-07T17:06:24.424Z,8.80
2023-08-07T17:11:34.040Z,14.15
2023-08-07T17:16:40.703Z,10.36
2023-08-07T17:21:44.336Z,10.76
2023-08-07T17:26:51.876Z,9.01
2023-08-07T17:31:59.092Z,9.32
2023-08-07T17:37:02.708Z,8.53
2023-08-07T17:42:08.209Z,10.78
2023-08-07T17:47:11.681Z,9.07
2023-08-07T17:52:21.218Z,11.11
2023-08-07T17:57:26.920Z,10.23
2023-08-07T18:02:30.526Z,9.06
2023-08-07T18:07:35.029Z,13.54
2023-08-07T18:12:44.747Z,10.40
2023-08-07T18:17:50.490Z,8.26
2023-08-07T18:22:56.084Z,8.51
2023-08-07T18:28:00.942Z,8.89
2023-08-07T18:33:07.008Z,12.12
2023-08-07T18:38:12.907Z,20.52
2023-08-07T18:43:17.889Z,35.57
2023-08-07T18:48:23.704Z,13.99
2023-08-07T18:53:27.248Z,10.51
2023-08-07T18:58:35.317Z,8.69
2023-08-07T19:03:41.359Z,7.97
2023-08-07T19:08:48.151Z,9.41
2023-08-07T19:13:55.369Z,12.86
2023-08-07T19:19:01.468Z,9.98
2023-08-07T19:24:05.148Z,9.99
2023-08-07T19:29:13.667Z,10.12
2023-08-07T19:34:19.467Z,22.14
2023-08-07T19:39:23.876Z,11.33
2023-08-07T19:44:28.751Z,15.19
2023-08-07T19:49:32.308Z,8.37
2023-08-07T19:54:40.372Z,8.46
2023-08-07T19:59:47.489Z,7.21
2023-08-07T20:04:52.666Z,9.03
2023-08-07T20:09:56.320Z,7.78
2023-08-07T20:15:03.233Z,5.33
2023-08-07T20:20:10.705Z,4.70
2023-08-07T20:25:14.243Z,5.01
2023-08-07T20:30:19.148Z,8.99
2023-08-07T20:35:23.036Z,10.40
2023-08-07T20:40:26.944Z,9.88
2023-08-07T20:45:32.000Z,10.26
2023-08-07T20:50:35.612Z,11.04
2023-08-07T20:55:39.197Z,12.89
2023-08-07T21:00:44.264Z,12.00
2023-08-07T21:05:50.930Z,10.68
2023-08-07T21:10:57.276Z,9.52
2023-08-07T21:16:02.553Z,10.61
2023-08-07T21:21:06.364Z,10.78
2023-08-07T21:26:09.856Z,10.19
2023-08-07T21:31:17.803Z,12.07
2023-08-07T21:36:22.134Z,22.03
2023-08-07T21:41:26.619Z,11.40
2023-08-07T21:46:32.251Z,10.92
2023-08-07T21:51:36.160Z,17.01
2023-08-07T21:56:43.431Z,9.52
2023-08-07T22:01:48.478Z,9.43
2023-08-07T22:06:52.029Z,10.01
2023-08-07T22:11:58.232Z,9.10
2023-08-07T22:17:08.640Z,9.16
2023-08-07T22:22:15.310Z,14.11
2023-08-07T22:27:18.827Z,9.43
2023-08-07T22:32:26.121Z,8.66
2023-08-07T22:37:29.843Z,9.00
2023-08-07T22:42:33.532Z,9.62
2023-08-07T22:47:40.814Z,8.64
2023-08-07T22:52:46.788Z,7.43
2023-08-07T22:57:52.686Z,8.20
2023-08-07T23:02:57.913Z,10.20
2023-08-07T23:08:01.519Z,9.48
2023-08-07T23:13:05.085Z,9.76
2023-08-07T23:18:12.423Z,9.02
2023-08-07T23:23:15.970Z,9.11
2023-08-07T23:28:19.571Z,9.75
2023-08-07T23:33:24.356Z,9.72
2023-08-07T23:38:27.864Z,12.41
2023-08-07T23:43:34.299Z,8.78
2023-08-07T23:48:39.999Z,9.79
2023-08-07T23:53:45.885Z,13.16
2023-08-07T23:58:49.576Z,6.39
